AirNav   Air Wisconsin Up To $57,000 Bonus
 
 678 users online  

94C Gilbert Field Airport
Rio, Wisconsin, USA

GOING TO RIO?


FAA INFORMATION EFFECTIVE 31 DECEMBER 2020

Location

FAA Identifier: 94C
Lat/Long: 43-26-59.9470N 089-15-00.4170W
43-26.999117N 089-15.006950W
43.4499853,-89.2501158
(estimated)
Elevation: 925 ft. / 281.9 m (surveyed)
Variation: 00W (1985)
From city: 1 mile W of RIO, WI
Time zone: UTC -6 (UTC -5 during Daylight Saving Time)
Zip code: 53960

Airport Operations

Airport use: Open to the public
Activation date: 08/1963
Control tower: no
ARTCC: CHICAGO CENTER
FSS: GREEN BAY FLIGHT SERVICE STATION
NOTAMs facility: GRB (NOTAM-D service available)
Attendance: UNATNDD
Wind indicator: yes
Segmented circle: no

Airport Communications

CTAF: 122.9
WX ASOS at MSN (19 nm S): PHONE 608-249-0615

Nearby radio navigation aids

VOR radial/distance  VOR name  Freq  Var
MSNr009/18.7MADISON VORTAC108.6003E
DLLr102/23.2DELLS VORTAC117.0003E

 
NDB name  Hdg/Dist  Freq  Var  ID
JUNEAU274/23.934401WUNU ..- -. ..-
ROCK RIVER307/28.337101WRYV .-. -.-- ...-

Airport Services

Parking: tiedowns
Airframe service: NONE
Powerplant service: NONE
Bottled oxygen: NONE
Bulk oxygen: NONE

Runway Information

Runway 9/27

Dimensions: 1092 x 65 ft. / 333 x 20 m
Surface: turf, in fair condition
Runway edge markings: 09/27 THLDS MKD WITH ORANGE CONES.
RUNWAY 9  RUNWAY 27
Latitude: 43-27.099000N43-27.099000N
Longitude: 089-15.389833W089-15.107333W
Elevation: 940.0 ft.940.0 ft.
Traffic pattern: leftleft
Runway end identifier lights: nono
Obstructions: 76 ft. trees, 840 ft. from runway, 175 ft. left of centerline, 11:1 slope to clear65 ft. tree, 585 ft. from runway, 150 ft. left of centerline, 9:1 slope to clear

Airport Ownership and Management from official FAA records

Ownership: Privately-owned
Owner: RIO AERO CLUB, INC
5019 HWY 116
RIO, WI 53960
Phone 920-214-5917
Manager: TODD ROAT
PO BOX 184
RIO, WI 53960
Phone 920-214-5917
EMAIL ADDRESS: RIOAEROCLUB@GMAIL.COM

Airport Operational Statistics

Aircraft based on the field: 10
Single engine airplanes: 8
Ultralights: 2
    
Aircraft operations: avg 111/week *
65% local general aviation
34% transient general aviation
<1% military
* for 12-month period ending 17 June 2020

Additional Remarks

CFM WINTER RWY CONDS & SN REMOVAL CALL 920-214-5917.
FOR CD CTC CHICAGO ARTCC AT 630-906-8921.

Instrument Procedures

There are no published instrument procedures at 94C.

Some nearby airports with instrument procedures:

C47 - Portage Municipal Airport (12 nm NW)
KMSN - Dane County Regional Airport-Truax Field (19 nm S)
87Y - Blackhawk Airfield (21 nm S)
KDLL - Baraboo-Wisconsin Dells Regional Airport (23 nm W)
C29 - Middleton Municipal Airport - Morey Field (24 nm SW)
 
Loc | Ops | Rwys | IFR | FBO | Links
Com | Nav | Svcs | Stats | Notes
Area around 94C (Gilbert Field Airport)
 
Road maps at: MapQuest Bing Google
 
Aerial photo
WARNING: Photo may not be current or correct
Aerial photo of 94C (Gilbert Field Airport)
Photo taken 24-Apr-2018
looking south.

Do you have a better or more recent aerial photo of Gilbert Field Airport that you would like to share? If so, please send us your photo.

 
Sectional chart

 
Airport distance calculator
Flying to Gilbert Field Airport? Find the distance to fly.

From to 94C

Sunrise and sunset
Times for 16-Jan-2021
 Local
(UTC-6)
 Zulu
(UTC)
Morning civil twilight06:5612:56
Sunrise07:2713:27
Sunset16:4622:46
Evening civil twilight17:1823:18

Current date and time
Zulu (UTC)  16-Jan-2021 13:15:32
Local (UTC-6)  16-Jan-2021 07:15:32
 
METAR
KMSN 
19nm S 
161253Z 34009KT 9SM -SN BKN013 OVC019 01/00 A2960 RMK AO2 SLP033 CIG 009V017 P0000 T00060000
KDLL 
23nm W 
161255Z AUTO 33006KT 10SM OVC006 00/00 A2962 RMK AO2 T10021002
KC29 
24nm SW 
161255Z AUTO 33008KT 10SM OVC011 02/00 A2962 RMK AO1 T00160001
KUNU 
24nm E 
161255Z AUTO 34010KT 7SM -SN OVC009 00/00 A2959 RMK AO2 T00001003
KRYV 
29nm SE 
161255Z AUTO 34009G14KT 7SM -SN OVC008 00/00 A2958 RMK AO2 T00020002
KC35 
32nm W 
161255Z AUTO 33006KT 10SM BKN012 OVC048 01/01 A2964 RMK AO2 T00050005 PWINO
KY50 
36nm N 
161256Z AUTO 34006KT 10SM BKN060 OVC085 01/00 A2963 RMK AO2 RAB07E30SNE07 SLP041 P0000 T00060000 FZRANO $
KFLD 
38nm NE 
161253Z AUTO 35010KT 8SM -SN OVC010 02/00 A2959 RMK AO2 SNB30 SLP027 P0000 T00170000
TAF
KMSN 
19nm S 
161130Z 1612/1712 34010KT 5SM -SN SCT008 OVC013 FM161400 34010KT P6SM OVC015 FM170000 31007KT P6SM BKN015 OVC020 FM170800 31005KT P6SM OVC012
NOTAMs
Click for the latest NOTAMs
NOTAMs are issued by the DoD/FAA and will open in a separate window not controlled by AirNav.

 

 
 

Would you like to see your business listed on this page?

 If your business provides an interesting product or service to pilots, flight crews, aircraft, or users of the Gilbert Field Airport, you should consider listing it here.  To start the listing process, click on the button below
 
Add a business
 

Other Pages about Gilbert Field Airport

Page from the Wisconsin airport directory (PDF)
 
Update a link
 
Copyright © AirNav, LLC. All rights reserved. Privacy Policy  Contact